The Lakes, Nevada
Current Conditions -  °F | °C
As of 12:53 AM on Thursday 23 Oct 2014 (Local Time) from KVGT Reporting Station
Clear Clear  
Wind Chill: 63°   Ceiling: Unl
Heat Index: 63°   Visibility: 10mi
Dew Point: 31°   Wind: 7mph
Humidity: 30%   Direction: 320°NW
Pressure: 30.05"   Gusts: NA
Location:  36.14°N, 115.29°W
Report Text: KVGT 230753Z 32006KT 10SM CLR 17/M01 A3005 RMK AO2 SLP176 T01721006 402890161
Loading
Personal Weather Stations






























Interactive Weather Map
Tropical Storm Tracking
New forecast layout! Learn more

10-Day Weather Forecast

Advertisements
Track Severe Weather on mobile